createdAt,value
2022-10-02T00:00:00.383Z,18.38
2022-10-02T00:00:11.387Z,18.39
2022-10-02T00:00:22.396Z,18.40
2022-10-02T00:00:33.417Z,18.39
2022-10-02T00:00:44.421Z,18.38
2022-10-02T00:00:55.427Z,18.38
2022-10-02T00:01:06.487Z,18.38
2022-10-02T00:01:18.444Z,18.39
2022-10-02T00:01:30.414Z,18.39
2022-10-02T00:01:41.456Z,18.40
2022-10-02T00:01:53.394Z,18.38
2022-10-02T00:02:04.353Z,18.38
2022-10-02T00:02:16.354Z,18.39
2022-10-02T00:02:28.353Z,18.39
2022-10-02T00:02:39.361Z,18.40
2022-10-02T00:02:50.378Z,18.39
2022-10-02T00:03:01.385Z,18.39
2022-10-02T00:03:12.384Z,18.39
2022-10-02T00:03:24.383Z,18.40
2022-10-02T00:03:35.400Z,18.39
2022-10-02T00:03:46.425Z,18.38
2022-10-02T00:03:57.460Z,18.38
2022-10-02T00:04:08.506Z,18.38
2022-10-02T00:04:20.434Z,18.38
2022-10-02T00:04:32.524Z,18.37
2022-10-02T00:04:44.388Z,18.39
2022-10-02T00:04:56.392Z,18.38
2022-10-02T00:05:07.418Z,18.38
2022-10-02T00:05:18.432Z,18.39
2022-10-02T00:05:29.334Z,18.38
2022-10-02T00:05:40.341Z,18.39
2022-10-02T00:05:51.349Z,18.38
2022-10-02T00:06:02.353Z,18.38
2022-10-02T00:06:13.360Z,18.36
2022-10-02T00:06:24.367Z,18.38
2022-10-02T00:06:35.566Z,18.38
2022-10-02T00:06:46.398Z,18.38
2022-10-02T00:06:58.404Z,18.39
2022-10-02T00:07:09.420Z,18.39
2022-10-02T00:07:21.419Z,18.39
2022-10-02T00:07:33.341Z,18.38
2022-10-02T00:07:44.354Z,18.40
2022-10-02T00:07:55.354Z,18.38
2022-10-02T00:08:06.357Z,18.39
2022-10-02T00:08:23.335Z,18.39
2022-10-02T00:08:31.344Z,18.38
2022-10-02T00:08:42.349Z,18.39
2022-10-02T00:08:54.350Z,18.38
2022-10-02T00:09:05.351Z,18.38
2022-10-02T00:09:16.359Z,18.39
2022-10-02T00:09:27.362Z,18.40
2022-10-02T00:09:39.384Z,18.39
2022-10-02T00:09:50.393Z,18.40
2022-10-02T00:10:01.410Z,18.39
2022-10-02T00:10:12.412Z,18.38
2022-10-02T00:10:24.418Z,18.40
2022-10-02T00:10:35.447Z,18.40
2022-10-02T00:10:46.429Z,18.41
2022-10-02T00:10:58.347Z,18.41
2022-10-02T00:11:09.364Z,18.40
2022-10-02T00:11:20.369Z,18.40
2022-10-02T00:11:31.369Z,18.40
2022-10-02T00:11:42.385Z,18.40
2022-10-02T00:11:54.392Z,18.40
2022-10-02T00:12:05.394Z,18.40
2022-10-02T00:12:16.412Z,18.40
2022-10-02T00:12:27.431Z,18.39
2022-10-02T00:12:38.337Z,18.40
2022-10-02T00:12:49.346Z,18.39
2022-10-02T00:13:00.353Z,18.39
2022-10-02T00:13:11.369Z,18.39
2022-10-02T00:13:22.373Z,18.38
2022-10-02T00:13:33.374Z,18.39
2022-10-02T00:13:45.378Z,18.39
2022-10-02T00:13:57.384Z,18.40
2022-10-02T00:14:08.387Z,18.39
2022-10-02T00:14:19.401Z,18.37
2022-10-02T00:14:30.417Z,18.39
2022-10-02T00:14:41.443Z,18.38
2022-10-02T00:14:53.360Z,18.39
2022-10-02T00:15:04.378Z,18.40
2022-10-02T00:15:15.382Z,18.40
2022-10-02T00:15:26.387Z,18.39
2022-10-02T00:15:38.390Z,18.39
2022-10-02T00:15:49.406Z,18.40
2022-10-02T00:16:00.461Z,18.39
2022-10-02T00:16:11.449Z,18.38
2022-10-02T00:16:23.412Z,18.38
2022-10-02T00:16:34.919Z,18.38
2022-10-02T00:16:45.502Z,18.38
2022-10-02T00:16:57.434Z,18.36
2022-10-02T00:17:09.336Z,18.37
2022-10-02T00:17:20.344Z,18.37
2022-10-02T00:17:31.348Z,18.37
2022-10-02T00:17:43.350Z,18.38
2022-10-02T00:17:54.356Z,18.37
2022-10-02T00:18:06.357Z,18.37
2022-10-02T00:18:17.369Z,18.37
2022-10-02T00:18:28.370Z,18.37
2022-10-02T00:18:39.373Z,18.38
2022-10-02T00:18:51.378Z,18.39
2022-10-02T00:19:02.389Z,18.38
2022-10-02T00:19:13.393Z,18.39
2022-10-02T00:19:24.404Z,18.38
2022-10-02T00:19:35.411Z,18.38
2022-10-02T00:19:46.438Z,18.38
2022-10-02T00:19:58.361Z,18.38
2022-10-02T00:20:09.377Z,18.39
2022-10-02T00:20:20.390Z,18.39
2022-10-02T00:20:31.412Z,18.40
2022-10-02T00:20:42.410Z,18.38
2022-10-02T00:20:53.429Z,18.38
2022-10-02T00:21:04.433Z,18.38
2022-10-02T00:21:16.354Z,18.39
2022-10-02T00:21:28.359Z,18.38
2022-10-02T00:21:39.377Z,18.38
2022-10-02T00:21:50.404Z,18.38
2022-10-02T00:22:01.408Z,18.39
2022-10-02T00:22:12.459Z,18.39
2022-10-02T00:22:24.383Z,18.38
2022-10-02T00:22:36.381Z,18.39
2022-10-02T00:22:47.396Z,18.39
2022-10-02T00:22:58.407Z,18.39
2022-10-02T00:23:09.436Z,18.38
2022-10-02T00:23:21.422Z,18.37
2022-10-02T00:23:32.335Z,18.38
2022-10-02T00:23:43.347Z,18.38
2022-10-02T00:23:54.365Z,18.38
2022-10-02T00:24:05.364Z,18.37
2022-10-02T00:24:16.374Z,18.36
2022-10-02T00:24:27.385Z,18.38
2022-10-02T00:24:39.383Z,18.39
2022-10-02T00:24:50.406Z,18.38
2022-10-02T00:25:01.404Z,18.38
2022-10-02T00:25:13.409Z,18.37
2022-10-02T00:25:24.417Z,18.37
2022-10-02T00:25:36.422Z,18.37
2022-10-02T00:25:47.450Z,18.37
2022-10-02T00:25:59.434Z,18.38
2022-10-02T00:26:11.346Z,18.37
2022-10-02T00:26:22.352Z,18.38
2022-10-02T00:26:34.720Z,18.38
2022-10-02T00:26:45.433Z,18.38
2022-10-02T00:26:56.334Z,18.39
2022-10-02T00:27:07.353Z,18.38
2022-10-02T00:27:19.354Z,18.39
2022-10-02T00:27:30.372Z,18.38
2022-10-02T00:27:41.376Z,18.39
2022-10-02T00:27:53.432Z,18.39
2022-10-02T00:28:04.466Z,18.39
2022-10-02T00:28:15.511Z,18.39
2022-10-02T00:28:27.500Z,18.40
2022-10-02T00:28:39.375Z,18.39
2022-10-02T00:28:50.375Z,18.39
2022-10-02T00:29:02.385Z,18.38
2022-10-02T00:29:13.404Z,18.38
2022-10-02T00:29:24.416Z,18.38
2022-10-02T00:29:35.431Z,18.38
2022-10-02T00:29:46.439Z,18.38
2022-10-02T00:29:58.355Z,18.38
2022-10-02T00:30:09.363Z,18.38
2022-10-02T00:30:20.367Z,18.39
2022-10-02T00:30:31.375Z,18.39
2022-10-02T00:30:42.386Z,18.39
2022-10-02T00:30:53.394Z,18.37
2022-10-02T00:31:04.412Z,18.38
2022-10-02T00:31:15.468Z,18.38
2022-10-02T00:31:27.473Z,18.37
2022-10-02T00:31:39.405Z,18.38
2022-10-02T00:31:50.433Z,18.38
2022-10-02T00:32:01.469Z,18.37
2022-10-02T00:32:12.423Z,18.38
2022-10-02T00:32:23.428Z,18.37
2022-10-02T00:32:34.434Z,18.38
2022-10-02T00:32:45.440Z,18.37
2022-10-02T00:32:56.444Z,18.38
2022-10-02T00:33:08.371Z,18.38
2022-10-02T00:33:19.381Z,18.39
2022-10-02T00:33:30.398Z,18.38
2022-10-02T00:33:41.399Z,18.39
2022-10-02T00:33:52.413Z,18.39
2022-10-02T00:34:03.424Z,18.38
2022-10-02T00:34:15.360Z,18.38
2022-10-02T00:34:25.406Z,18.38
2022-10-02T00:34:36.409Z,18.39
2022-10-02T00:34:47.441Z,18.37
2022-10-02T00:34:59.347Z,18.38
2022-10-02T00:35:10.357Z,18.39
2022-10-02T00:35:21.364Z,18.39
2022-10-02T00:35:32.379Z,18.39
2022-10-02T00:35:43.385Z,18.38
2022-10-02T00:35:54.392Z,18.38
2022-10-02T00:36:05.394Z,18.40
2022-10-02T00:36:16.427Z,18.39
2022-10-02T00:36:27.422Z,18.40
2022-10-02T00:36:38.667Z,18.39
2022-10-02T00:36:50.377Z,18.38
2022-10-02T00:37:01.383Z,18.39
2022-10-02T00:37:13.388Z,18.39
2022-10-02T00:37:24.386Z,18.38
2022-10-02T00:37:35.398Z,18.39
2022-10-02T00:37:46.397Z,18.39
2022-10-02T00:37:57.404Z,18.38
2022-10-02T00:38:08.407Z,18.40
2022-10-02T00:38:19.420Z,18.40
2022-10-02T00:38:30.427Z,18.39
2022-10-02T00:38:42.430Z,18.40
2022-10-02T00:38:54.345Z,18.40
2022-10-02T00:39:05.350Z,18.38
2022-10-02T00:39:16.354Z,18.40
2022-10-02T00:39:27.356Z,18.40
2022-10-02T00:39:38.381Z,18.40
2022-10-02T00:39:49.402Z,18.40
2022-10-02T00:40:00.419Z,18.39
2022-10-02T00:40:11.425Z,18.40
2022-10-02T00:40:22.336Z,18.39
2022-10-02T00:40:33.350Z,18.39
2022-10-02T00:40:44.354Z,18.39
2022-10-02T00:40:56.383Z,18.38
2022-10-02T00:41:07.367Z,18.39
2022-10-02T00:41:19.368Z,18.39
2022-10-02T00:41:30.372Z,18.39
2022-10-02T00:41:42.377Z,18.39
2022-10-02T00:41:53.389Z,18.39
2022-10-02T00:42:05.394Z,18.39
2022-10-02T00:42:16.461Z,18.39
2022-10-02T00:42:28.369Z,18.39
2022-10-02T00:42:39.385Z,18.40
2022-10-02T00:42:50.390Z,18.39
2022-10-02T00:43:01.405Z,18.39
2022-10-02T00:43:12.404Z,18.39
2022-10-02T00:43:23.414Z,18.39
2022-10-02T00:43:35.416Z,18.39
2022-10-02T00:43:46.329Z,18.39
2022-10-02T00:43:57.334Z,18.38
2022-10-02T00:44:08.349Z,18.39
2022-10-02T00:44:19.357Z,18.39
2022-10-02T00:44:31.361Z,18.38
2022-10-02T00:44:42.376Z,18.39
2022-10-02T00:44:53.416Z,18.39
2022-10-02T00:45:04.336Z,18.38
2022-10-02T00:45:15.351Z,18.39
2022-10-02T00:45:26.387Z,18.39
2022-10-02T00:45:37.422Z,18.38
2022-10-02T00:45:48.457Z,18.37
2022-10-02T00:45:59.401Z,18.37
2022-10-02T00:46:10.483Z,18.38
2022-10-02T00:46:22.371Z,18.38
2022-10-02T00:46:33.816Z,18.38
2022-10-02T00:46:45.357Z,18.37
2022-10-02T00:46:56.362Z,18.37
2022-10-02T00:47:07.377Z,18.37
2022-10-02T00:47:18.392Z,18.37
2022-10-02T00:47:29.415Z,18.37
2022-10-02T00:47:40.334Z,18.39
2022-10-02T00:47:51.354Z,18.37
2022-10-02T00:48:02.362Z,18.38
2022-10-02T00:48:13.368Z,18.38
2022-10-02T00:48:24.380Z,18.38
2022-10-02T00:48:35.390Z,18.37
2022-10-02T00:48:46.398Z,18.37
2022-10-02T00:48:57.413Z,18.37
2022-10-02T00:49:08.419Z,18.36
2022-10-02T00:49:19.433Z,18.36
2022-10-02T00:49:31.355Z,18.36
2022-10-02T00:49:42.379Z,18.37
2022-10-02T00:49:53.391Z,18.37
2022-10-02T00:50:04.436Z,18.38
2022-10-02T00:50:16.373Z,18.37
2022-10-02T00:50:27.373Z,18.38
2022-10-02T00:50:38.399Z,18.37
2022-10-02T00:50:49.426Z,18.37
2022-10-02T00:51:00.433Z,18.37
2022-10-02T00:51:12.362Z,18.37
2022-10-02T00:51:24.369Z,18.37
2022-10-02T00:51:35.377Z,18.38
2022-10-02T00:51:46.384Z,18.38
2022-10-02T00:51:57.402Z,18.38
2022-10-02T00:52:08.410Z,18.38
2022-10-02T00:52:19.427Z,18.38
2022-10-02T00:52:31.435Z,18.38
2022-10-02T00:52:43.451Z,18.37
2022-10-02T00:52:54.394Z,18.38
2022-10-02T00:53:05.406Z,18.38
2022-10-02T00:53:16.427Z,18.38
2022-10-02T00:53:28.356Z,18.38
2022-10-02T00:53:39.365Z,18.38
2022-10-02T00:53:50.386Z,18.38
2022-10-02T00:54:01.396Z,18.39
2022-10-02T00:54:12.407Z,18.38
2022-10-02T00:54:24.411Z,18.37
2022-10-02T00:54:35.426Z,18.38
2022-10-02T00:54:46.429Z,18.38
2022-10-02T00:54:58.355Z,18.38
2022-10-02T00:55:09.379Z,18.38
2022-10-02T00:55:20.391Z,18.39
2022-10-02T00:55:31.395Z,18.38
2022-10-02T00:55:42.411Z,18.38
2022-10-02T00:55:53.417Z,18.38
2022-10-02T00:56:04.449Z,18.36
2022-10-02T00:56:16.345Z,18.37
2022-10-02T00:56:27.360Z,18.38
2022-10-02T00:56:38.804Z,18.36
2022-10-02T00:56:49.387Z,18.37
2022-10-02T00:57:00.410Z,18.36
2022-10-02T00:57:11.420Z,18.36
2022-10-02T00:57:22.430Z,18.36
2022-10-02T00:57:34.354Z,18.38
2022-10-02T00:57:45.362Z,18.36
2022-10-02T00:57:56.381Z,18.36
2022-10-02T00:58:07.391Z,18.37
2022-10-02T00:58:18.403Z,18.37
2022-10-02T00:58:29.412Z,18.37
2022-10-02T00:58:40.415Z,18.36
2022-10-02T00:58:51.420Z,18.37
2022-10-02T00:59:02.430Z,18.36
2022-10-02T00:59:14.441Z,18.37
2022-10-02T00:59:26.350Z,18.37
2022-10-02T00:59:37.371Z,18.36
2022-10-02T00:59:48.382Z,18.37
2022-10-02T01:00:00.388Z,18.38
2022-10-02T01:00:11.406Z,18.37
2022-10-02T01:00:22.419Z,18.38
2022-10-02T01:00:33.421Z,18.37
2022-10-02T01:00:44.445Z,18.38
2022-10-02T01:00:56.507Z,18.36
2022-10-02T01:01:08.429Z,18.37
2022-10-02T01:01:19.533Z,18.38
2022-10-02T01:01:30.400Z,18.38
2022-10-02T01:01:41.539Z,18.37
2022-10-02T01:01:52.464Z,18.38
2022-10-02T01:02:04.406Z,18.37
2022-10-02T01:02:15.438Z,18.37
2022-10-02T01:02:26.526Z,18.37
2022-10-02T01:02:38.397Z,18.37
2022-10-02T01:02:50.405Z,18.38
2022-10-02T01:03:02.406Z,18.36
2022-10-02T01:03:13.411Z,18.37
2022-10-02T01:03:25.425Z,18.38
2022-10-02T01:03:36.434Z,18.37
2022-10-02T01:03:48.358Z,18.37
2022-10-02T01:03:59.370Z,18.37
2022-10-02T01:04:10.378Z,18.37
2022-10-02T01:04:22.377Z,18.37
2022-10-02T01:04:33.382Z,18.37
2022-10-02T01:04:45.387Z,18.37
2022-10-02T01:04:56.388Z,18.36
2022-10-02T01:05:08.411Z,18.37
2022-10-02T01:05:19.423Z,18.37
2022-10-02T01:05:31.424Z,18.36
2022-10-02T01:05:43.346Z,18.36
2022-10-02T01:05:54.350Z,18.37
2022-10-02T01:06:05.364Z,18.37
2022-10-02T01:06:17.378Z,18.36
2022-10-02T01:06:28.373Z,18.37
2022-10-02T01:06:39.379Z,18.37
2022-10-02T01:06:50.407Z,18.37
2022-10-02T01:07:01.428Z,18.36
2022-10-02T01:07:13.433Z,18.36
2022-10-02T01:07:25.335Z,18.35
2022-10-02T01:07:36.349Z,18.36
2022-10-02T01:07:47.356Z,18.37
2022-10-02T01:07:58.360Z,18.37
2022-10-02T01:08:09.377Z,18.36
2022-10-02T01:08:20.388Z,18.38
2022-10-02T01:08:31.391Z,18.37
2022-10-02T01:08:42.391Z,18.38
2022-10-02T01:08:53.411Z,18.37
2022-10-02T01:09:04.407Z,18.36
2022-10-02T01:09:15.422Z,18.37
2022-10-02T01:09:26.440Z,18.37
2022-10-02T01:09:38.350Z,18.37
2022-10-02T01:09:49.382Z,18.36
2022-10-02T01:10:00.387Z,18.36
2022-10-02T01:10:11.403Z,18.37
2022-10-02T01:10:22.436Z,18.37
2022-10-02T01:10:34.417Z,18.35
2022-10-02T01:10:45.434Z,18.36
2022-10-02T01:10:57.344Z,18.36
2022-10-02T01:11:09.365Z,18.36
2022-10-02T01:11:20.344Z,18.36
2022-10-02T01:11:32.347Z,18.37
2022-10-02T01:11:43.355Z,18.36
2022-10-02T01:11:55.360Z,18.36
2022-10-02T01:12:06.380Z,18.36
2022-10-02T01:12:17.385Z,18.36
2022-10-02T01:12:28.382Z,18.36
2022-10-02T01:12:40.388Z,18.36
2022-10-02T01:12:52.395Z,18.35
2022-10-02T01:13:03.407Z,18.35
2022-10-02T01:13:15.410Z,18.36
2022-10-02T01:13:27.410Z,18.37
2022-10-02T01:13:38.413Z,18.35
2022-10-02T01:13:49.418Z,18.35
2022-10-02T01:14:01.340Z,18.36
2022-10-02T01:14:12.358Z,18.35
2022-10-02T01:14:24.363Z,18.36
2022-10-02T01:14:36.367Z,18.36
2022-10-02T01:14:48.376Z,18.36
2022-10-02T01:14:59.387Z,18.36
2022-10-02T01:15:11.385Z,18.36
2022-10-02T01:15:22.394Z,18.36
2022-10-02T01:15:33.392Z,18.37
2022-10-02T01:15:45.399Z,18.37
2022-10-02T01:15:56.403Z,18.35
2022-10-02T01:16:07.419Z,18.37
2022-10-02T01:16:18.473Z,18.35
2022-10-02T01:16:30.414Z,18.37
2022-10-02T01:16:41.437Z,18.37
2022-10-02T01:16:52.488Z,18.37
2022-10-02T01:17:04.369Z,18.37
2022-10-02T01:17:15.381Z,18.36
2022-10-02T01:17:26.397Z,18.37
2022-10-02T01:17:37.411Z,18.38
2022-10-02T01:17:48.419Z,18.38
2022-10-02T01:17:59.416Z,18.37
2022-10-02T01:18:10.417Z,18.37
2022-10-02T01:18:21.423Z,18.37
2022-10-02T01:18:32.428Z,18.37
2022-10-02T01:18:43.436Z,18.37
2022-10-02T01:18:55.436Z,18.38
2022-10-02T01:19:07.341Z,18.37
2022-10-02T01:19:18.354Z,18.37
2022-10-02T01:19:29.369Z,18.37
2022-10-02T01:19:40.374Z,18.36
2022-10-02T01:19:51.398Z,18.37
2022-10-02T01:20:02.409Z,18.36
2022-10-02T01:20:13.421Z,18.36
2022-10-02T01:20:24.435Z,18.36
2022-10-02T01:20:35.338Z,18.36
2022-10-02T01:20:46.350Z,18.37
2022-10-02T01:20:58.355Z,18.36
2022-10-02T01:21:09.375Z,18.36
2022-10-02T01:21:20.382Z,18.36
2022-10-02T01:21:31.402Z,18.37
2022-10-02T01:21:42.409Z,18.36
2022-10-02T01:21:53.409Z,18.37
2022-10-02T01:22:05.421Z,18.37
2022-10-02T01:22:16.422Z,18.38
2022-10-02T01:22:27.433Z,18.37
2022-10-02T01:22:38.344Z,18.37
2022-10-02T01:22:49.351Z,18.37
2022-10-02T01:23:00.369Z,18.37
2022-10-02T01:23:11.384Z,18.37
2022-10-02T01:23:22.389Z,18.38
2022-10-02T01:23:33.394Z,18.37
2022-10-02T01:23:44.413Z,18.37
2022-10-02T01:23:56.419Z,18.38
2022-10-02T01:24:07.338Z,18.36
2022-10-02T01:24:18.352Z,18.37
2022-10-02T01:24:29.359Z,18.36
2022-10-02T01:24:40.369Z,18.37
2022-10-02T01:24:51.381Z,18.37
2022-10-02T01:25:02.388Z,18.36
2022-10-02T01:25:13.394Z,18.38
2022-10-02T01:25:25.397Z,18.37
2022-10-02T01:25:37.398Z,18.37
2022-10-02T01:25:48.405Z,18.37
2022-10-02T01:25:59.409Z,18.37
2022-10-02T01:26:10.417Z,18.36
2022-10-02T01:26:21.359Z,18.37
2022-10-02T01:26:32.511Z,18.37
2022-10-02T01:26:43.358Z,18.37
2022-10-02T01:26:55.362Z,18.37
2022-10-02T01:27:06.368Z,18.37
2022-10-02T01:27:17.378Z,18.38
2022-10-02T01:27:28.390Z,18.37
2022-10-02T01:27:39.671Z,18.36
2022-10-02T01:27:50.400Z,18.37
2022-10-02T01:28:01.427Z,18.37
2022-10-02T01:28:12.450Z,18.37
2022-10-02T01:28:23.414Z,18.37
2022-10-02T01:28:34.386Z,18.38
2022-10-02T01:28:45.399Z,18.35
2022-10-02T01:28:56.413Z,18.37
2022-10-02T01:29:07.422Z,18.36
2022-10-02T01:29:18.350Z,18.37
2022-10-02T01:29:29.352Z,18.36
2022-10-02T01:29:40.355Z,18.36
2022-10-02T01:29:52.377Z,18.36
2022-10-02T01:30:03.380Z,18.36
2022-10-02T01:30:14.399Z,18.37
2022-10-02T01:30:25.398Z,18.37
2022-10-02T01:30:37.393Z,18.36
2022-10-02T01:30:48.396Z,18.37
2022-10-02T01:31:00.398Z,18.36
2022-10-02T01:31:12.480Z,18.37
2022-10-02T01:31:24.435Z,18.37
2022-10-02T01:31:35.492Z,18.36
2022-10-02T01:31:47.407Z,18.36
2022-10-02T01:31:58.455Z,18.36
2022-10-02T01:32:09.428Z,18.36
2022-10-02T01:32:20.338Z,18.36
2022-10-02T01:32:31.353Z,18.36
2022-10-02T01:32:42.360Z,18.35
2022-10-02T01:32:53.365Z,18.36
2022-10-02T01:33:04.381Z,18.36
2022-10-02T01:33:15.388Z,18.37
2022-10-02T01:33:26.388Z,18.37
2022-10-02T01:33:38.396Z,18.37
2022-10-02T01:33:49.409Z,18.36
2022-10-02T01:34:00.404Z,18.36
2022-10-02T01:34:11.407Z,18.36
2022-10-02T01:34:23.416Z,18.36
2022-10-02T01:34:34.428Z,18.36
2022-10-02T01:34:45.452Z,18.37
2022-10-02T01:34:57.352Z,18.38
2022-10-02T01:35:09.356Z,18.38
2022-10-02T01:35:21.354Z,18.38
2022-10-02T01:35:32.357Z,18.38
2022-10-02T01:35:43.361Z,18.37
2022-10-02T01:35:54.370Z,18.35
2022-10-02T01:36:05.374Z,18.36
2022-10-02T01:36:17.375Z,18.36
2022-10-02T01:36:29.379Z,18.36
2022-10-02T01:36:40.388Z,18.36
2022-10-02T01:36:51.404Z,18.37
2022-10-02T01:37:03.409Z,18.36
2022-10-02T01:37:14.416Z,18.36
2022-10-02T01:37:25.422Z,18.36
2022-10-02T01:37:36.337Z,18.36
2022-10-02T01:37:47.340Z,18.36
2022-10-02T01:37:58.355Z,18.36
2022-10-02T01:38:09.362Z,18.36
2022-10-02T01:38:20.381Z,18.37
2022-10-02T01:38:32.385Z,18.36
2022-10-02T01:38:43.400Z,18.36
2022-10-02T01:38:55.407Z,18.35
2022-10-02T01:39:07.410Z,18.35
2022-10-02T01:39:18.412Z,18.35
2022-10-02T01:39:29.423Z,18.35
2022-10-02T01:39:40.430Z,18.35
2022-10-02T01:39:51.446Z,18.36
2022-10-02T01:40:03.350Z,18.35
2022-10-02T01:40:14.369Z,18.37
2022-10-02T01:40:25.375Z,18.37
2022-10-02T01:40:36.383Z,18.36
2022-10-02T01:40:47.389Z,18.36
2022-10-02T01:40:58.392Z,18.36
2022-10-02T01:41:10.393Z,18.36
2022-10-02T01:41:21.396Z,18.35
2022-10-02T01:41:32.434Z,18.35
2022-10-02T01:41:43.425Z,18.35
2022-10-02T01:41:54.434Z,18.35
2022-10-02T01:42:06.352Z,18.36
2022-10-02T01:42:18.361Z,18.36
2022-10-02T01:42:29.374Z,18.37
2022-10-02T01:42:40.377Z,18.35
2022-10-02T01:42:51.378Z,18.37
2022-10-02T01:43:02.381Z,18.36
2022-10-02T01:43:13.395Z,18.35
2022-10-02T01:43:24.401Z,18.36
2022-10-02T01:43:35.411Z,18.37
2022-10-02T01:43:46.419Z,18.36
2022-10-02T01:43:57.437Z,18.37
2022-10-02T01:44:09.347Z,18.37
2022-10-02T01:44:20.355Z,18.37
2022-10-02T01:44:32.362Z,18.37
2022-10-02T01:44:44.363Z,18.36
2022-10-02T01:44:56.380Z,18.36
2022-10-02T01:45:07.390Z,18.37
2022-10-02T01:45:19.397Z,18.37
2022-10-02T01:45:30.425Z,18.36
2022-10-02T01:45:41.466Z,18.36
2022-10-02T01:45:53.484Z,18.36
2022-10-02T01:46:05.464Z,18.36
2022-10-02T01:46:16.478Z,18.37
2022-10-02T01:46:28.381Z,18.37
2022-10-02T01:46:39.680Z,18.38
2022-10-02T01:46:50.417Z,18.37
2022-10-02T01:47:01.444Z,18.36
2022-10-02T01:47:13.436Z,18.37
2022-10-02T01:47:25.355Z,18.36
2022-10-02T01:47:36.360Z,18.37
2022-10-02T01:47:47.369Z,18.37
2022-10-02T01:47:58.374Z,18.38
2022-10-02T01:48:09.382Z,18.38
2022-10-02T01:48:21.384Z,18.37
2022-10-02T01:48:33.380Z,18.36
2022-10-02T01:48:44.388Z,18.37
2022-10-02T01:48:55.402Z,18.36
2022-10-02T01:49:07.408Z,18.36
2022-10-02T01:49:18.408Z,18.37
2022-10-02T01:49:29.410Z,18.36
2022-10-02T01:49:41.414Z,18.36
2022-10-02T01:49:52.446Z,18.36
2022-10-02T01:50:04.366Z,18.36
2022-10-02T01:50:16.368Z,18.37
2022-10-02T01:50:27.382Z,18.36
2022-10-02T01:50:39.386Z,18.35
2022-10-02T01:50:50.399Z,18.36
2022-10-02T01:51:01.402Z,18.36
2022-10-02T01:51:13.402Z,18.35
2022-10-02T01:51:24.406Z,18.36
2022-10-02T01:51:36.409Z,18.35
2022-10-02T01:51:47.418Z,18.35
2022-10-02T01:51:59.423Z,18.35
2022-10-02T01:52:10.429Z,18.37
2022-10-02T01:52:21.340Z,18.36
2022-10-02T01:52:32.355Z,18.36
2022-10-02T01:52:43.360Z,18.36
2022-10-02T01:52:54.386Z,18.34
2022-10-02T01:53:05.391Z,18.36
2022-10-02T01:53:16.407Z,18.37
2022-10-02T01:53:28.422Z,18.35
2022-10-02T01:53:39.428Z,18.35
2022-10-02T01:53:51.429Z,18.35
2022-10-02T01:54:03.353Z,18.36
2022-10-02T01:54:15.355Z,18.36
2022-10-02T01:54:26.355Z,18.36
2022-10-02T01:54:37.368Z,18.35
2022-10-02T01:54:48.370Z,18.36
2022-10-02T01:54:59.384Z,18.35
2022-10-02T01:55:10.392Z,18.36
2022-10-02T01:55:21.410Z,18.34
2022-10-02T01:55:32.430Z,18.34
2022-10-02T01:55:44.430Z,18.34
2022-10-02T01:55:56.353Z,18.34
2022-10-02T01:56:07.359Z,18.34
2022-10-02T01:56:18.371Z,18.34
2022-10-02T01:56:29.376Z,18.34
2022-10-02T01:56:40.426Z,18.34
2022-10-02T01:56:51.414Z,18.35
2022-10-02T01:57:02.426Z,18.34
2022-10-02T01:57:13.429Z,18.35
2022-10-02T01:57:25.432Z,18.34
2022-10-02T01:57:37.352Z,18.34
2022-10-02T01:57:48.354Z,18.34
2022-10-02T01:57:59.359Z,18.34
2022-10-02T01:58:11.361Z,18.34
2022-10-02T01:58:22.367Z,18.35
2022-10-02T01:58:33.365Z,18.34
2022-10-02T01:58:45.369Z,18.35
2022-10-02T01:58:56.375Z,18.36
2022-10-02T01:59:07.388Z,18.36
2022-10-02T01:59:18.406Z,18.38
2022-10-02T01:59:29.415Z,18.36
2022-10-02T01:59:40.422Z,18.36
2022-10-02T01:59:52.434Z,18.36
2022-10-02T02:00:04.362Z,18.36
2022-10-02T02:00:15.369Z,18.36
2022-10-02T02:00:26.393Z,18.36
2022-10-02T02:00:37.393Z,18.36
2022-10-02T02:00:49.482Z,18.36
2022-10-02T02:01:00.499Z,18.36
2022-10-02T02:01:12.472Z,18.37
2022-10-02T02:01:24.405Z,18.37
2022-10-02T02:01:35.491Z,18.36
2022-10-02T02:01:46.498Z,18.36
2022-10-02T02:01:58.418Z,18.36
2022-10-02T02:02:09.447Z,18.35
2022-10-02T02:02:20.433Z,18.36
2022-10-02T02:02:31.507Z,18.35
2022-10-02T02:02:43.393Z,18.35
2022-10-02T02:02:54.400Z,18.35
2022-10-02T02:03:05.420Z,18.37
2022-10-02T02:03:17.433Z,18.35
2022-10-02T02:03:29.355Z,18.35
2022-10-02T02:03:40.375Z,18.35
2022-10-02T02:03:51.392Z,18.34
2022-10-02T02:04:02.396Z,18.34
2022-10-02T02:04:13.404Z,18.35
2022-10-02T02:04:25.409Z,18.35
2022-10-02T02:04:36.440Z,18.36
2022-10-02T02:04:47.358Z,18.36
2022-10-02T02:04:58.385Z,18.35
2022-10-02T02:05:09.404Z,18.36
2022-10-02T02:05:20.407Z,18.35
2022-10-02T02:05:31.426Z,18.35
2022-10-02T02:05:42.429Z,18.37
2022-10-02T02:05:54.352Z,18.35
2022-10-02T02:06:05.346Z,18.35
2022-10-02T02:06:16.354Z,18.35
2022-10-02T02:06:27.362Z,18.35
2022-10-02T02:06:38.860Z,18.35
2022-10-02T02:06:49.439Z,18.36
2022-10-02T02:07:00.432Z,18.36
2022-10-02T02:07:12.341Z,18.36
2022-10-02T02:07:23.348Z,18.36
2022-10-02T02:07:34.355Z,18.36
2022-10-02T02:07:45.366Z,18.35
2022-10-02T02:07:57.369Z,18.35
2022-10-02T02:08:08.377Z,18.36
2022-10-02T02:08:19.396Z,18.35
2022-10-02T02:08:30.397Z,18.36
2022-10-02T02:08:41.413Z,18.37
2022-10-02T02:08:52.426Z,18.36
2022-10-02T02:09:03.431Z,18.37
2022-10-02T02:09:14.334Z,18.35
2022-10-02T02:09:25.335Z,18.35
2022-10-02T02:09:36.345Z,18.34
2022-10-02T02:09:47.385Z,18.34
2022-10-02T02:09:58.413Z,18.35
2022-10-02T02:10:09.433Z,18.35
2022-10-02T02:10:21.348Z,18.35
2022-10-02T02:10:32.354Z,18.35
2022-10-02T02:10:44.358Z,18.35
2022-10-02T02:10:56.357Z,18.36
2022-10-02T02:11:07.357Z,18.36
2022-10-02T02:11:18.364Z,18.36
2022-10-02T02:11:29.375Z,18.36
2022-10-02T02:11:40.386Z,18.36
2022-10-02T02:11:51.421Z,18.35
2022-10-02T02:12:02.406Z,18.36
2022-10-02T02:12:14.416Z,18.34
2022-10-02T02:12:25.421Z,18.35
2022-10-02T02:12:36.334Z,18.34
2022-10-02T02:12:47.349Z,18.35
2022-10-02T02:12:58.358Z,18.35
2022-10-02T02:13:10.359Z,18.34
2022-10-02T02:13:22.359Z,18.35
2022-10-02T02:13:33.380Z,18.35
2022-10-02T02:13:44.384Z,18.35
2022-10-02T02:13:55.401Z,18.34
2022-10-02T02:14:07.400Z,18.35
2022-10-02T02:14:18.402Z,18.34
2022-10-02T02:14:30.405Z,18.33
2022-10-02T02:14:42.403Z,18.33
2022-10-02T02:14:54.408Z,18.33
2022-10-02T02:15:05.426Z,18.32
2022-10-02T02:15:16.333Z,18.34
2022-10-02T02:15:27.342Z,18.35
2022-10-02T02:15:38.356Z,18.36
2022-10-02T02:15:49.364Z,18.35
2022-10-02T02:16:00.400Z,18.36
2022-10-02T02:16:11.537Z,18.35
2022-10-02T02:16:22.460Z,18.35
2022-10-02T02:16:33.688Z,18.36
2022-10-02T02:16:45.410Z,18.35
2022-10-02T02:16:56.490Z,18.34
2022-10-02T02:17:08.372Z,18.35
2022-10-02T02:17:19.377Z,18.35
2022-10-02T02:17:30.386Z,18.36
2022-10-02T02:17:42.394Z,18.36
2022-10-02T02:17:53.397Z,18.35
2022-10-02T02:18:04.394Z,18.36
2022-10-02T02:18:15.410Z,18.37
2022-10-02T02:18:26.431Z,18.36
2022-10-02T02:18:38.350Z,18.36
2022-10-02T02:18:49.352Z,18.36
2022-10-02T02:19:00.355Z,18.35
2022-10-02T02:19:11.361Z,18.34
2022-10-02T02:19:22.364Z,18.35
2022-10-02T02:19:33.379Z,18.36
2022-10-02T02:19:44.379Z,18.36
2022-10-02T02:19:55.380Z,18.36
2022-10-02T02:20:06.401Z,18.36
2022-10-02T02:20:17.396Z,18.36
2022-10-02T02:20:28.398Z,18.35
2022-10-02T02:20:39.408Z,18.35
2022-10-02T02:20:50.419Z,18.35
2022-10-02T02:21:01.421Z,18.35
2022-10-02T02:21:12.423Z,18.35
2022-10-02T02:21:23.426Z,18.36
2022-10-02T02:21:35.429Z,18.36
2022-10-02T02:21:46.429Z,18.36
2022-10-02T02:21:58.437Z,18.35
2022-10-02T02:22:10.351Z,18.35
2022-10-02T02:22:21.365Z,18.35
2022-10-02T02:22:32.368Z,18.36
2022-10-02T02:22:43.383Z,18.36
2022-10-02T02:22:54.397Z,18.36
2022-10-02T02:23:06.428Z,18.34
2022-10-02T02:23:17.424Z,18.35
2022-10-02T02:23:28.436Z,18.34
2022-10-02T02:23:40.362Z,18.35
2022-10-02T02:23:51.375Z,18.35
2022-10-02T02:24:02.376Z,18.35
2022-10-02T02:24:14.388Z,18.34
2022-10-02T02:24:26.381Z,18.35
2022-10-02T02:24:38.388Z,18.34
2022-10-02T02:24:49.407Z,18.33
2022-10-02T02:25:01.424Z,18.34